Time,TemperatureF,DewpointF,PressureIn,WindDirection,WindDirectionDegrees,WindSpeedMPH,WindSpeedGustMPH,Humidity,HourlyPrecipIn,Conditions,Clouds,dailyrainin,SoftwareType,DateUTC
2013-03-26 00:04:00,24.3,18.4,30.24,NNE,28,0.0,0.0,78,0.00,,,0.00,VWS V12.07,2013-03-26 05:04:00,
2013-03-26 00:09:00,24.3,18.4,30.24,NNE,28,0.0,2.0,78,0.00,,,0.00,VWS V12.07,2013-03-26 05:09:00,
2013-03-26 00:19:00,24.1,18.2,30.24,NNE,28,0.0,2.0,78,0.00,,,0.00,VWS V12.07,2013-03-26 05:19:00,
2013-03-26 00:24:00,24.0,18.1,30.24,NNE,28,0.0,2.0,78,0.00,,,0.00,VWS V12.07,2013-03-26 05:24:00,
2013-03-26 00:34:00,24.0,18.5,30.25,NNE,22,0.0,1.0,79,0.00,,,0.00,VWS V12.07,2013-03-26 05:34:00,
2013-03-26 00:39:00,23.9,18.0,30.25,NNE,22,0.0,1.0,78,0.00,,,0.00,VWS V12.07,2013-03-26 05:39:00,
2013-03-26 00:44:00,23.8,18.2,30.25,NNE,23,0.0,1.0,79,0.00,,,0.00,VWS V12.07,2013-03-26 05:44:00,
2013-03-26 00:49:00,23.6,18.1,30.25,NNE,23,0.0,1.0,79,0.00,,,0.00,VWS V12.07,2013-03-26 05:49:00,
2013-03-26 00:59:00,23.4,18.1,30.25,NNE,23,0.0,1.0,80,0.00,,,0.00,VWS V12.07,2013-03-26 05:59:00,
2013-03-26 01:04:00,23.3,18.1,30.25,NNE,23,0.0,0.0,80,0.00,,,0.00,VWS V12.07,2013-03-26 06:04:00,
2013-03-26 01:09:00,23.2,18.2,30.25,NNE,22,0.0,0.0,81,0.00,,,0.00,VWS V12.07,2013-03-26 06:09:00,
2013-03-26 01:14:00,23.1,18.1,30.25,NNE,22,0.0,1.0,81,0.00,,,0.00,VWS V12.07,2013-03-26 06:14:00,
2013-03-26 01:19:00,23.2,18.2,30.25,NNE,23,0.0,1.0,81,0.00,,,0.00,VWS V12.07,2013-03-26 06:19:00,
2013-03-26 01:29:00,23.3,18.3,30.25,NNE,22,0.0,1.0,81,0.00,,,0.00,VWS V12.07,2013-03-26 06:29:00,
2013-03-26 01:34:00,23.3,18.3,30.25,NNE,22,0.0,0.0,81,0.00,,,0.00,VWS V12.07,2013-03-26 06:34:00,
2013-03-26 01:39:00,23.3,18.3,30.25,NNE,22,0.0,1.0,81,0.00,,,0.00,VWS V12.07,2013-03-26 06:39:00,
2013-03-26 01:44:00,23.4,18.4,30.25,NNE,22,0.0,1.0,81,0.00,,,0.00,VWS V12.07,2013-03-26 06:44:00,
2013-03-26 01:49:00,23.3,18.3,30.25,NNE,22,0.0,1.0,81,0.00,,,0.00,VWS V12.07,2013-03-26 06:49:00,
2013-03-26 01:54:00,23.3,18.3,30.25,NNE,22,0.0,1.0,81,0.00,,,0.00,VWS V12.07,2013-03-26 06:54:00,
2013-03-26 01:59:00,23.3,18.3,30.25,West,280,0.0,1.0,81,0.00,,,0.00,VWS V12.07,2013-03-26 06:59:00,
2013-03-26 02:04:00,23.2,18.2,30.25,West,281,0.0,1.0,81,0.00,,,0.00,VWS V12.07,2013-03-26 07:04:00,
2013-03-26 02:09:00,23.3,18.3,30.25,West,280,0.0,1.0,81,0.00,,,0.00,VWS V12.07,2013-03-26 07:09:00,
2013-03-26 02:14:00,23.3,18.3,30.25,West,281,0.0,1.0,81,0.00,,,0.00,VWS V12.07,2013-03-26 07:14:00,
2013-03-26 02:24:00,23.3,18.6,30.25,West,281,0.0,1.0,82,0.00,,,0.00,VWS V12.07,2013-03-26 07:24:00,
2013-03-26 02:29:00,23.3,18.6,30.24,West,281,0.0,1.0,82,0.00,,,0.00,VWS V12.07,2013-03-26 07:29:00,
2013-03-26 02:34:00,23.3,18.6,30.24,West,281,1.0,1.0,82,0.00,,,0.00,VWS V12.07,2013-03-26 07:34:00,
2013-03-26 02:39:00,23.3,18.6,30.24,West,281,0.0,1.0,82,0.00,,,0.00,VWS V12.07,2013-03-26 07:39:00,
2013-03-26 02:44:00,23.3,18.6,30.24,West,281,0.0,1.0,82,0.00,,,0.00,VWS V12.07,2013-03-26 07:44:00,
2013-03-26 02:49:00,23.3,18.9,30.24,West,281,0.0,1.0,83,0.00,,,0.00,VWS V12.07,2013-03-26 07:49:00,
2013-03-26 02:54:00,23.4,19.0,30.24,WNW,302,0.0,3.0,83,0.00,,,0.00,VWS V12.07,2013-03-26 07:54:00,
2013-03-26 03:04:00,23.4,19.0,30.24,NW,316,0.0,2.0,83,0.00,,,0.00,VWS V12.07,2013-03-26 08:04:00,
2013-03-26 03:09:00,23.5,19.1,30.24,NW,309,0.0,2.0,83,0.00,,,0.00,VWS V12.07,2013-03-26 08:09:00,
2013-03-26 03:14:00,23.5,19.1,30.24,West,273,0.0,2.0,83,0.00,,,0.00,VWS V12.07,2013-03-26 08:14:00,
2013-03-26 03:19:00,23.4,19.3,30.24,West,274,0.0,2.0,84,0.00,,,0.00,VWS V12.07,2013-03-26 08:19:00,
2013-03-26 03:29:00,23.4,19.3,30.24,West,264,0.0,2.0,84,0.00,,,0.00,VWS V12.07,2013-03-26 08:29:00,
2013-03-26 03:34:00,23.4,19.3,30.24,West,264,0.0,0.0,84,0.00,,,0.00,VWS V12.07,2013-03-26 08:34:00,
2013-03-26 03:39:00,23.5,19.7,30.24,West,264,0.0,1.0,85,0.00,,,0.00,VWS V12.07,2013-03-26 08:39:00,
2013-03-26 03:44:00,23.6,19.8,30.24,West,264,0.0,1.0,85,0.00,,,0.00,VWS V12.07,2013-03-26 08:44:00,
2013-03-26 03:49:00,23.6,20.0,30.24,WSW,257,0.0,3.0,86,0.00,,,0.00,VWS V12.07,2013-03-26 08:49:00,
2013-03-26 03:54:00,23.6,20.0,30.24,NNW,330,0.0,3.0,86,0.00,,,0.00,VWS V12.07,2013-03-26 08:54:00,
2013-03-26 03:59:00,23.6,20.0,30.24,NNW,330,0.0,3.0,86,0.00,,,0.00,VWS V12.07,2013-03-26 08:59:00,
2013-03-26 04:04:00,23.8,20.2,30.24,NNW,346,0.0,2.0,86,0.00,,,0.00,VWS V12.07,2013-03-26 09:04:00,
2013-03-26 04:09:00,23.9,20.3,30.24,NNE,20,0.0,3.0,86,0.00,,,0.00,VWS V12.07,2013-03-26 09:09:00,
2013-03-26 04:14:00,23.9,20.3,30.24,NNE,20,0.0,3.0,86,0.00,,,0.00,VWS V12.07,2013-03-26 09:14:00,
2013-03-26 04:19:00,23.9,20.3,30.24,NNW,336,0.0,3.0,86,0.00,,,0.00,VWS V12.07,2013-03-26 09:19:00,
2013-03-26 04:24:00,23.9,20.3,30.24,NNW,336,0.0,3.0,86,0.00,,,0.00,VWS V12.07,2013-03-26 09:24:00,
2013-03-26 04:29:00,23.9,20.3,30.24,NNW,336,0.0,3.0,86,0.00,,,0.00,VWS V12.07,2013-03-26 09:29:00,
2013-03-26 04:34:00,23.9,20.3,30.24,NNW,336,0.0,0.0,86,0.00,,,0.00,VWS V12.07,2013-03-26 09:34:00,
2013-03-26 04:39:00,23.9,20.6,30.24,West,279,0.0,2.0,87,0.00,,,0.00,VWS V12.07,2013-03-26 09:39:00,
2013-03-26 04:49:00,23.9,20.6,30.24,WSW,254,2.0,2.0,87,0.00,,,0.00,VWS V12.07,2013-03-26 09:49:00,
2013-03-26 04:54:00,23.9,20.6,30.24,WSW,254,0.0,2.0,87,0.00,,,0.00,VWS V12.07,2013-03-26 09:54:00,
2013-03-26 04:59:00,23.9,20.6,30.24,WSW,254,0.0,2.0,87,0.00,,,0.00,VWS V12.07,2013-03-26 09:59:00,
2013-03-26 05:04:00,23.8,20.5,30.24,WSW,253,0.0,0.0,87,0.00,,,0.00,VWS V12.07,2013-03-26 10:04:00,
2013-03-26 05:09:00,23.8,20.5,30.24,WSW,257,0.0,1.0,87,0.00,,,0.00,VWS V12.07,2013-03-26 10:09:00,
2013-03-26 05:14:00,23.9,20.6,30.25,West,274,1.0,2.0,87,0.00,,,0.00,VWS V12.07,2013-03-26 10:14:00,
2013-03-26 05:19:00,23.9,20.6,30.25,West,274,0.0,2.0,87,0.00,,,0.00,VWS V12.07,2013-03-26 10:19:00,
2013-03-26 05:24:00,23.9,20.6,30.25,West,267,0.0,3.0,87,0.00,,,0.00,VWS V12.07,2013-03-26 10:24:00,
2013-03-26 05:29:00,23.9,20.6,30.25,West,267,0.0,3.0,87,0.00,,,0.00,VWS V12.07,2013-03-26 10:29:00,
2013-03-26 05:34:00,24.0,20.7,30.25,West,267,0.0,0.0,87,0.00,,,0.00,VWS V12.07,2013-03-26 10:34:00,
2013-03-26 05:39:00,23.9,20.6,30.25,West,267,0.0,0.0,87,0.00,,,0.00,VWS V12.07,2013-03-26 10:39:00,
2013-03-26 05:49:00,24.0,20.7,30.25,West,267,0.0,1.0,87,0.00,,,0.00,VWS V12.07,2013-03-26 10:49:00,
2013-03-26 05:59:00,24.1,20.8,30.25,West,267,0.0,1.0,87,0.00,,,0.00,VWS V12.07,2013-03-26 10:59:00,
2013-03-26 06:04:00,24.2,20.9,30.26,West,267,0.0,1.0,87,0.00,,,0.00,VWS V12.07,2013-03-26 11:04:00,
2013-03-26 06:09:00,24.2,20.9,30.25,NE,38,0.0,3.0,87,0.00,,,0.00,VWS V12.07,2013-03-26 11:09:00,
2013-03-26 06:19:00,24.3,21.0,30.26,WSW,252,0.0,3.0,87,0.00,,,0.00,VWS V12.07,2013-03-26 11:19:00,
2013-03-26 06:24:00,24.4,21.1,30.26,WSW,252,0.0,3.0,87,0.00,,,0.00,VWS V12.07,2013-03-26 11:24:00,
2013-03-26 06:29:00,24.3,21.0,30.26,WSW,252,0.0,3.0,87,0.00,,,0.00,VWS V12.07,2013-03-26 11:29:00,
2013-03-26 06:34:00,24.3,21.0,30.26,WSW,252,1.0,1.0,87,0.00,,,0.00,VWS V12.07,2013-03-26 11:34:00,
2013-03-26 06:39:00,24.4,21.1,30.26,West,269,0.0,2.0,87,0.00,,,0.00,VWS V12.07,2013-03-26 11:39:00,
2013-03-26 06:44:00,24.4,21.1,30.26,West,268,0.0,2.0,87,0.00,,,0.00,VWS V12.07,2013-03-26 11:44:00,
2013-03-26 06:49:00,24.4,21.1,30.26,West,269,0.0,2.0,87,0.00,,,0.00,VWS V12.07,2013-03-26 11:49:00,
2013-03-26 06:59:00,24.5,21.2,30.27,WSW,244,0.0,2.0,87,0.00,,,0.00,VWS V12.07,2013-03-26 11:59:00,
2013-03-26 07:04:00,24.5,21.2,30.27,NNW,331,0.0,1.0,87,0.00,,,0.00,VWS V12.07,2013-03-26 12:04:00,
2013-03-26 07:09:00,24.7,21.4,30.27,NE,39,0.0,1.0,87,0.00,,,0.00,VWS V12.07,2013-03-26 12:09:00,
2013-03-26 07:14:00,24.8,21.5,30.27,NE,39,0.0,1.0,87,0.00,,,0.00,VWS V12.07,2013-03-26 12:14:00,
2013-03-26 07:19:00,24.8,21.5,30.27,NE,39,0.0,1.0,87,0.00,,,0.00,VWS V12.07,2013-03-26 12:19:00,
2013-03-26 07:24:00,24.8,21.5,30.27,NE,38,0.0,1.0,87,0.00,,,0.00,VWS V12.07,2013-03-26 12:24:00,
2013-03-26 07:29:00,24.9,21.6,30.27,NNE,30,0.0,1.0,87,0.00,,,0.00,VWS V12.07,2013-03-26 12:29:00,
2013-03-26 07:34:00,25.0,21.7,30.27,NNE,30,0.0,0.0,87,0.00,,,0.00,VWS V12.07,2013-03-26 12:34:00,
2013-03-26 07:39:00,25.1,21.8,30.28,NW,313,0.0,1.0,87,0.00,,,0.00,VWS V12.07,2013-03-26 12:39:00,
2013-03-26 07:44:00,25.2,21.9,30.28,NW,313,0.0,1.0,87,0.00,,,0.00,VWS V12.07,2013-03-26 12:44:00,
2013-03-26 07:49:00,25.3,22.0,30.28,NW,313,0.0,1.0,87,0.00,,,0.00,VWS V12.07,2013-03-26 12:49:00,
2013-03-26 07:59:00,25.5,22.2,30.28,NW,317,1.0,3.0,87,0.00,,,0.00,VWS V12.07,2013-03-26 12:59:00,
2013-03-26 08:04:00,25.7,22.4,30.28,NW,316,1.0,2.0,87,0.00,,,0.00,VWS V12.07,2013-03-26 13:04:00,
2013-03-26 08:09:00,25.9,22.6,30.28,NW,316,0.0,2.0,87,0.00,,,0.00,VWS V12.07,2013-03-26 13:09:00,
2013-03-26 08:14:00,26.1,22.8,30.28,East,88,0.0,3.0,87,0.00,,,0.00,VWS V12.07,2013-03-26 13:14:00,
2013-03-26 08:19:00,26.2,22.9,30.28,WSW,249,0.0,3.0,87,0.00,,,0.00,VWS V12.07,2013-03-26 13:19:00,
2013-03-26 08:24:00,26.5,22.9,30.28,WSW,249,0.0,3.0,86,0.00,,,0.00,VWS V12.07,2013-03-26 13:24:00,
2013-03-26 08:29:00,26.7,23.1,30.28,North,5,1.0,3.0,86,0.00,,,0.00,VWS V12.07,2013-03-26 13:29:00,
2013-03-26 08:34:00,26.9,23.3,30.28,NW,322,0.0,1.0,86,0.00,,,0.00,VWS V12.07,2013-03-26 13:34:00,
2013-03-26 08:44:00,27.2,23.3,30.28,NE,36,0.0,4.0,85,0.00,,,0.00,VWS V12.07,2013-03-26 13:44:00,
2013-03-26 08:49:00,27.3,23.7,30.28,NNW,333,0.0,4.0,86,0.00,,,0.00,VWS V12.07,2013-03-26 13:49:00,
2013-03-26 08:54:00,27.6,23.7,30.28,SE,133,0.0,4.0,85,0.00,,,0.00,VWS V12.07,2013-03-26 13:54:00,
2013-03-26 08:59:00,27.8,23.9,30.28,NNW,339,2.0,4.0,85,0.00,,,0.00,VWS V12.07,2013-03-26 13:59:00,
2013-03-26 09:09:00,28.1,23.9,30.28,North,9,2.0,3.0,84,0.00,,,0.00,VWS V12.07,2013-03-26 14:09:00,
2013-03-26 09:14:00,28.2,24.0,30.29,West,265,0.0,4.0,84,0.00,,,0.00,VWS V12.07,2013-03-26 14:14:00,
2013-03-26 09:19:00,28.2,24.0,30.29,North,5,0.0,4.0,84,0.00,,,0.00,VWS V12.07,2013-03-26 14:19:00,
2013-03-26 09:29:00,28.5,24.0,30.29,NNE,13,0.0,4.0,83,0.00,,,0.00,VWS V12.07,2013-03-26 14:29:00,
2013-03-26 09:39:00,28.9,24.4,30.29,NE,34,0.0,4.0,83,0.00,,,0.00,VWS V12.07,2013-03-26 14:39:00,
2013-03-26 09:44:00,29.1,24.6,30.29,WNW,283,3.0,4.0,83,0.00,,,0.00,VWS V12.07,2013-03-26 14:44:00,
2013-03-26 09:49:00,29.4,24.9,30.29,North,350,0.0,4.0,83,0.00,,,0.00,VWS V12.07,2013-03-26 14:49:00,
2013-03-26 09:54:00,29.7,24.9,30.29,West,264,1.0,6.0,82,0.00,,,0.00,VWS V12.07,2013-03-26 14:54:00,
2013-03-26 09:59:00,29.9,25.1,30.29,NNE,32,2.0,6.0,82,0.00,,,0.00,VWS V12.07,2013-03-26 14:59:00,
2013-03-26 10:09:00,30.3,25.2,30.29,NE,46,2.0,5.0,81,0.00,,,0.00,VWS V12.07,2013-03-26 15:09:00,
2013-03-26 10:14:00,30.5,25.4,30.29,NE,40,3.0,5.0,81,0.00,,,0.00,VWS V12.07,2013-03-26 15:14:00,
2013-03-26 10:19:00,30.8,25.4,30.29,NE,44,1.0,7.0,80,0.00,,,0.00,VWS V12.07,2013-03-26 15:19:00,
2013-03-26 10:29:00,31.6,25.9,30.29,North,360,0.0,7.0,79,0.00,,,0.00,VWS V12.07,2013-03-26 15:29:00,
2013-03-26 10:34:00,31.9,25.5,30.29,East,87,3.0,4.0,77,0.00,,,0.00,VWS V12.07,2013-03-26 15:34:00,
2013-03-26 10:39:00,32.0,25.6,30.29,ENE,61,0.0,6.0,77,0.00,,,0.00,VWS V12.07,2013-03-26 15:39:00,
2013-03-26 10:44:00,32.3,25.9,30.29,NE,37,2.0,6.0,77,0.00,,,0.00,VWS V12.07,2013-03-26 15:44:00,
2013-03-26 10:49:00,32.6,25.6,30.30,NE,43,3.0,6.0,75,0.00,,,0.00,VWS V12.07,2013-03-26 15:49:00,
2013-03-26 10:54:00,32.7,25.7,30.29,NNE,28,4.0,6.0,75,0.00,,,0.00,VWS V12.07,2013-03-26 15:54:00,
2013-03-26 10:59:00,32.9,25.9,30.29,NE,46,3.0,7.0,75,0.00,,,0.00,VWS V12.07,2013-03-26 15:59:00,
2013-03-26 11:09:00,33.1,25.7,30.29,NE,53,0.0,7.0,74,0.00,,,0.00,VWS V12.07,2013-03-26 16:09:00,
2013-03-26 11:14:00,33.4,25.7,30.30,NE,36,4.0,7.0,73,0.00,,,0.00,VWS V12.07,2013-03-26 16:14:00,
2013-03-26 11:19:00,33.8,26.1,30.30,NE,38,0.0,7.0,73,0.00,,,0.00,VWS V12.07,2013-03-26 16:19:00,
2013-03-26 11:24:00,34.1,26.0,30.29,NNW,330,0.0,7.0,72,0.00,,,0.00,VWS V12.07,2013-03-26 16:24:00,
2013-03-26 11:29:00,34.4,26.3,30.30,North,355,1.0,7.0,72,0.00,,,0.00,VWS V12.07,2013-03-26 16:29:00,
2013-03-26 11:34:00,34.4,26.0,30.29,NE,35,6.0,7.0,71,0.00,,,0.00,VWS V12.07,2013-03-26 16:34:00,
2013-03-26 11:44:00,34.4,26.0,30.30,NNW,327,2.0,7.0,71,0.00,,,0.00,VWS V12.07,2013-03-26 16:44:00,
2013-03-26 11:49:00,34.5,25.7,30.29,West,266,0.0,7.0,70,0.00,,,0.00,VWS V12.07,2013-03-26 16:49:00,
2013-03-26 11:59:00,35.4,26.3,30.29,North,355,0.0,7.0,69,0.00,,,0.00,VWS V12.07,2013-03-26 16:59:00,
2013-03-26 12:09:00,35.3,26.2,30.29,NNE,17,0.0,4.0,69,0.00,,,0.00,VWS V12.07,2013-03-26 17:09:00,
2013-03-26 12:14:00,35.5,25.6,30.29,North,349,2.0,5.0,67,0.00,,,0.00,VWS V12.07,2013-03-26 17:14:00,
2013-03-26 12:19:00,35.4,25.5,30.29,NE,53,0.0,7.0,67,0.00,,,0.00,VWS V12.07,2013-03-26 17:19:00,
2013-03-26 12:24:00,35.3,25.5,30.29,NW,321,2.0,7.0,67,0.00,,,0.00,VWS V12.07,2013-03-26 17:24:00,
2013-03-26 12:34:00,35.4,25.5,30.29,ENE,66,1.0,3.0,67,0.00,,,0.00,VWS V12.07,2013-03-26 17:34:00,
2013-03-26 12:39:00,35.4,25.9,30.29,NE,34,2.0,5.0,68,0.00,,,0.00,VWS V12.07,2013-03-26 17:39:00,
2013-03-26 12:44:00,35.4,25.9,30.29,NE,37,3.0,5.0,68,0.00,,,0.00,VWS V12.07,2013-03-26 17:44:00,
2013-03-26 12:49:00,35.4,25.5,30.29,NNE,29,1.0,5.0,67,0.00,,,0.00,VWS V12.07,2013-03-26 17:49:00,
2013-03-26 12:54:00,35.4,24.1,30.29,North,360,3.0,7.0,63,0.00,,,0.00,VWS V12.07,2013-03-26 17:54:00,
2013-03-26 12:59:00,35.4,25.2,30.29,NNE,19,1.0,7.0,66,0.00,,,0.00,VWS V12.07,2013-03-26 17:59:00,
2013-03-26 13:04:00,35.6,25.7,30.29,NNE,13,2.0,4.0,67,0.00,,,0.00,VWS V12.07,2013-03-26 18:04:00,
2013-03-26 13:09:00,35.6,24.6,30.28,NE,46,2.0,4.0,64,0.00,,,0.00,VWS V12.07,2013-03-26 18:09:00,
2013-03-26 13:14:00,35.5,23.4,30.28,ENE,58,3.0,8.0,61,0.00,,,0.00,VWS V12.07,2013-03-26 18:14:00,
2013-03-26 13:19:00,35.3,23.6,30.29,NNE,26,3.0,8.0,62,0.00,,,0.00,VWS V12.07,2013-03-26 18:19:00,
2013-03-26 13:24:00,35.5,24.5,30.28,ENE,63,2.0,8.0,64,0.00,,,0.00,VWS V12.07,2013-03-26 18:24:00,
2013-03-26 13:29:00,35.5,24.9,30.29,ENE,67,2.0,8.0,65,0.00,,,0.00,VWS V12.07,2013-03-26 18:29:00,
2013-03-26 13:34:00,35.5,24.9,30.29,SE,139,0.0,3.0,65,0.00,,,0.00,VWS V12.07,2013-03-26 18:34:00,
2013-03-26 13:44:00,35.9,24.5,30.29,NNW,347,0.0,5.0,63,0.00,,,0.00,VWS V12.07,2013-03-26 18:44:00,
2013-03-26 13:49:00,35.9,24.5,30.29,NW,322,1.0,5.0,63,0.00,,,0.00,VWS V12.07,2013-03-26 18:49:00,
2013-03-26 13:54:00,35.8,24.5,30.28,East,86,0.0,6.0,63,0.00,,,0.00,VWS V12.07,2013-03-26 18:54:00,
2013-03-26 13:59:00,35.7,24.4,30.28,WSW,254,0.0,6.0,63,0.00,,,0.00,VWS V12.07,2013-03-26 18:59:00,
2013-03-26 14:04:00,35.8,24.8,30.28,North,360,1.0,1.0,64,0.00,,,0.00,VWS V12.07,2013-03-26 19:04:00,
2013-03-26 14:09:00,35.8,24.8,30.28,North,360,1.0,3.0,64,0.00,,,0.00,VWS V12.07,2013-03-26 19:09:00,
2013-03-26 14:14:00,35.7,24.4,30.28,NNE,21,2.0,4.0,63,0.00,,,0.00,VWS V12.07,2013-03-26 19:14:00,
2013-03-26 14:19:00,35.6,24.6,30.28,NE,38,0.0,4.0,64,0.00,,,0.00,VWS V12.07,2013-03-26 19:19:00,
2013-03-26 14:24:00,35.6,24.6,30.28,NE,55,1.0,5.0,64,0.00,,,0.00,VWS V12.07,2013-03-26 19:24:00,
2013-03-26 14:29:00,35.2,23.9,30.28,NNW,333,0.0,5.0,63,0.00,,,0.00,VWS V12.07,2013-03-26 19:29:00,
2013-03-26 14:34:00,35.0,23.3,30.28,NNW,333,1.0,1.0,62,0.00,,,0.00,VWS V12.07,2013-03-26 19:34:00,
2013-03-26 14:39:00,35.2,24.6,30.28,NNW,345,0.0,1.0,65,0.00,,,0.00,VWS V12.07,2013-03-26 19:39:00,
2013-03-26 14:49:00,35.4,24.5,30.28,WNW,296,0.0,3.0,64,0.00,,,0.00,VWS V12.07,2013-03-26 19:49:00,
2013-03-26 14:54:00,35.6,24.6,30.28,NNE,30,4.0,4.0,64,0.00,,,0.00,VWS V12.07,2013-03-26 19:54:00,
2013-03-26 14:59:00,35.5,24.2,30.28,NNE,26,0.0,5.0,63,0.00,,,0.00,VWS V12.07,2013-03-26 19:59:00,
2013-03-26 15:04:00,35.3,22.8,30.28,NNE,15,4.0,7.0,60,0.00,,,0.00,VWS V12.07,2013-03-26 20:04:00,
2013-03-26 15:14:00,35.4,22.1,30.28,East,101,1.0,9.0,58,0.00,,,0.00,VWS V12.07,2013-03-26 20:14:00,
2013-03-26 15:19:00,35.5,23.8,30.28,WSW,248,1.0,9.0,62,0.00,,,0.00,VWS V12.07,2013-03-26 20:19:00,
2013-03-26 15:24:00,35.7,22.8,30.28,NW,304,0.0,9.0,59,0.00,,,0.00,VWS V12.07,2013-03-26 20:24:00,
2013-03-26 15:29:00,36.1,23.2,30.28,WSW,248,1.0,9.0,59,0.00,,,0.00,VWS V12.07,2013-03-26 20:29:00,
2013-03-26 15:34:00,36.3,23.0,30.28,NNW,333,0.0,3.0,58,0.00,,,0.00,VWS V12.07,2013-03-26 20:34:00,
2013-03-26 15:44:00,36.2,22.9,30.28,West,262,1.0,5.0,58,0.00,,,0.00,VWS V12.07,2013-03-26 20:44:00,
2013-03-26 15:54:00,36.1,23.6,30.28,North,360,3.0,6.0,60,0.00,,,0.00,VWS V12.07,2013-03-26 20:54:00,
2013-03-26 15:59:00,36.1,24.4,30.28,West,272,2.0,6.0,62,0.00,,,0.00,VWS V12.07,2013-03-26 20:59:00,
2013-03-26 16:04:00,35.9,24.2,30.28,NE,49,2.0,5.0,62,0.00,,,0.00,VWS V12.07,2013-03-26 21:04:00,
2013-03-26 16:09:00,35.6,24.3,30.28,West,265,2.0,5.0,63,0.00,,,0.00,VWS V12.07,2013-03-26 21:09:00,
2013-03-26 16:14:00,35.8,24.5,30.28,NNE,30,1.0,5.0,63,0.00,,,0.00,VWS V12.07,2013-03-26 21:14:00,
2013-03-26 16:24:00,36.1,24.0,30.28,West,269,0.0,5.0,61,0.01,,,0.01,VWS V12.07,2013-03-26 21:24:00,
2013-03-26 16:29:00,36.0,23.9,30.28,North,360,1.0,5.0,61,0.01,,,0.01,VWS V12.07,2013-03-26 21:29:00,
2013-03-26 16:34:00,35.8,24.1,30.28,NE,44,3.0,3.0,62,0.01,,,0.01,VWS V12.07,2013-03-26 21:34:00,
2013-03-26 16:39:00,35.5,23.8,30.28,NNE,31,3.0,7.0,62,0.01,,,0.01,VWS V12.07,2013-03-26 21:39:00,
2013-03-26 16:44:00,35.3,24.0,30.28,NNE,32,0.0,7.0,63,0.01,,,0.01,VWS V12.07,2013-03-26 21:44:00,
2013-03-26 16:54:00,35.2,24.3,30.28,ENE,62,2.0,7.0,64,0.01,,,0.01,VWS V12.07,2013-03-26 21:54:00,
2013-03-26 16:59:00,35.1,23.8,30.28,WSW,257,3.0,7.0,63,0.01,,,0.01,VWS V12.07,2013-03-26 21:59:00,
2013-03-26 17:04:00,35.0,23.7,30.28,West,261,1.0,4.0,63,0.01,,,0.01,VWS V12.07,2013-03-26 22:04:00,
2013-03-26 17:09:00,35.0,24.4,30.28,WNW,292,3.0,5.0,65,0.01,,,0.01,VWS V12.07,2013-03-26 22:09:00,
2013-03-26 17:14:00,34.9,23.6,30.28,North,349,2.0,5.0,63,0.01,,,0.01,VWS V12.07,2013-03-26 22:14:00,
2013-03-26 17:19:00,34.7,23.8,30.29,NNE,23,0.0,5.0,64,0.01,,,0.01,VWS V12.07,2013-03-26 22:19:00,
2013-03-26 17:24:00,34.6,24.1,30.29,NE,42,2.0,6.0,65,0.01,,,0.01,VWS V12.07,2013-03-26 22:24:00,
2013-03-26 17:29:00,34.4,23.9,30.29,NE,50,2.0,6.0,65,0.01,,,0.01,VWS V12.07,2013-03-26 22:29:00,
2013-03-26 17:34:00,34.2,23.3,30.29,NNE,32,0.0,3.0,64,0.00,,,0.01,VWS V12.07,2013-03-26 22:34:00,
2013-03-26 17:39:00,34.3,24.1,30.29,NW,304,0.0,4.0,66,0.00,,,0.01,VWS V12.07,2013-03-26 22:39:00,
2013-03-26 17:49:00,34.4,23.9,30.29,NW,323,0.0,4.0,65,0.00,,,0.01,VWS V12.07,2013-03-26 22:49:00,
2013-03-26 17:54:00,34.4,23.9,30.30,West,263,0.0,4.0,65,0.00,,,0.01,VWS V12.07,2013-03-26 22:54:00,
2013-03-26 18:04:00,34.4,24.2,30.30,WNW,300,1.0,1.0,66,0.00,,,0.01,VWS V12.07,2013-03-26 23:04:00,
2013-03-26 18:14:00,34.4,24.2,30.30,North,9,0.0,2.0,66,0.00,,,0.01,VWS V12.07,2013-03-26 23:14:00,
2013-03-26 18:19:00,34.4,24.6,30.30,North,9,0.0,2.0,67,0.00,,,0.01,VWS V12.07,2013-03-26 23:19:00,
2013-03-26 18:24:00,34.3,24.5,30.30,NNE,17,0.0,2.0,67,0.00,,,0.01,VWS V12.07,2013-03-26 23:24:00,
2013-03-26 18:29:00,34.2,24.4,30.30,NNE,17,1.0,2.0,67,0.00,,,0.01,VWS V12.07,2013-03-26 23:29:00,
2013-03-26 18:34:00,34.1,24.3,30.30,NNW,333,0.0,2.0,67,0.00,,,0.01,VWS V12.07,2013-03-26 23:34:00,
2013-03-26 18:39:00,34.0,24.2,30.30,NNE,15,0.0,2.0,67,0.00,,,0.01,VWS V12.07,2013-03-26 23:39:00,
2013-03-26 18:44:00,33.9,24.1,30.30,North,360,1.0,2.0,67,0.00,,,0.01,VWS V12.07,2013-03-26 23:44:00,
2013-03-26 18:49:00,33.8,24.4,30.30,North,355,0.0,2.0,68,0.00,,,0.01,VWS V12.07,2013-03-26 23:49:00,
2013-03-26 18:54:00,33.7,24.3,30.30,NNW,340,0.0,4.0,68,0.00,,,0.01,VWS V12.07,2013-03-26 23:54:00,
2013-03-26 19:04:00,33.6,24.9,30.30,NNW,344,1.0,1.0,70,0.00,,,0.01,VWS V12.07,2013-03-27 00:04:00,
2013-03-26 19:09:00,33.4,24.7,30.30,North,10,0.0,3.0,70,0.00,,,0.01,VWS V12.07,2013-03-27 00:09:00,
2013-03-26 19:14:00,33.3,23.9,30.30,WSW,245,0.0,3.0,68,0.00,,,0.01,VWS V12.07,2013-03-27 00:14:00,
2013-03-26 19:19:00,33.2,23.8,30.30,WSW,245,0.0,3.0,68,0.00,,,0.01,VWS V12.07,2013-03-27 00:19:00,
2013-03-26 19:29:00,33.0,23.6,30.30,North,355,0.0,3.0,68,0.00,,,0.01,VWS V12.07,2013-03-27 00:29:00,
2013-03-26 19:34:00,33.0,23.6,30.30,North,355,0.0,0.0,68,0.00,,,0.01,VWS V12.07,2013-03-27 00:34:00,
2013-03-26 19:39:00,32.8,23.8,30.30,North,355,0.0,0.0,69,0.00,,,0.01,VWS V12.07,2013-03-27 00:39:00,
2013-03-26 19:49:00,32.7,23.3,30.31,NNE,21,2.0,3.0,68,0.00,,,0.01,VWS V12.07,2013-03-27 00:49:00,
2013-03-26 19:54:00,32.8,23.8,30.31,NNE,21,0.0,3.0,69,0.00,,,0.01,VWS V12.07,2013-03-27 00:54:00,
2013-03-26 19:59:00,32.8,24.1,30.31,North,360,1.0,3.0,70,0.00,,,0.01,VWS V12.07,2013-03-27 00:59:00,
2013-03-26 20:04:00,32.7,24.0,30.31,North,360,0.0,1.0,70,0.00,,,0.01,VWS V12.07,2013-03-27 01:04:00,
2013-03-26 20:09:00,32.7,24.4,30.31,North,360,0.0,1.0,71,0.00,,,0.01,VWS V12.07,2013-03-27 01:09:00,
2013-03-26 20:19:00,32.6,24.2,30.31,North,360,0.0,1.0,71,0.00,,,0.01,VWS V12.07,2013-03-27 01:19:00,
2013-03-26 20:24:00,32.5,23.8,30.31,North,360,0.0,1.0,70,0.00,,,0.01,VWS V12.07,2013-03-27 01:24:00,
2013-03-26 20:29:00,32.4,23.7,30.31,North,360,0.0,1.0,70,0.00,,,0.01,VWS V12.07,2013-03-27 01:29:00,
2013-03-26 20:34:00,32.4,24.1,30.31,North,5,0.0,0.0,71,0.00,,,0.01,VWS V12.07,2013-03-27 01:34:00,
2013-03-26 20:39:00,32.3,23.6,30.31,North,5,0.0,1.0,70,0.00,,,0.01,VWS V12.07,2013-03-27 01:39:00,
2013-03-26 20:44:00,32.1,24.1,30.31,North,360,0.0,1.0,72,0.00,,,0.01,VWS V12.07,2013-03-27 01:44:00,
2013-03-26 20:49:00,32.0,23.7,30.31,North,5,0.0,1.0,71,0.00,,,0.01,VWS V12.07,2013-03-27 01:49:00,
2013-03-26 20:59:00,31.7,24.4,30.31,North,360,0.0,1.0,74,0.00,,,0.01,VWS V12.07,2013-03-27 01:59:00,
2013-03-26 21:04:00,31.5,24.5,30.32,North,5,0.0,0.0,75,0.00,,,0.01,VWS V12.07,2013-03-27 02:04:00,
2013-03-26 21:09:00,31.4,24.1,30.32,North,5,0.0,0.0,74,0.00,,,0.01,VWS V12.07,2013-03-27 02:09:00,
2013-03-26 21:14:00,31.2,24.8,30.32,North,360,0.0,0.0,77,0.00,,,0.01,VWS V12.07,2013-03-27 02:14:00,
2013-03-26 21:19:00,31.1,24.1,30.32,North,5,0.0,0.0,75,0.00,,,0.01,VWS V12.07,2013-03-27 02:19:00,
2013-03-26 21:24:00,30.9,24.5,30.32,North,5,0.0,0.0,77,0.00,,,0.01,VWS V12.07,2013-03-27 02:24:00,
2013-03-26 21:29:00,30.8,23.5,30.32,North,360,0.0,0.0,74,0.00,,,0.01,VWS V12.07,2013-03-27 02:29:00,
2013-03-26 21:34:00,30.8,23.5,30.32,North,5,0.0,0.0,74,0.00,,,0.01,VWS V12.07,2013-03-27 02:34:00,
2013-03-26 21:39:00,30.8,23.5,30.32,North,5,0.0,0.0,74,0.00,,,0.01,VWS V12.07,2013-03-27 02:39:00,
2013-03-26 21:44:00,30.8,23.2,30.32,North,5,0.0,0.0,73,0.00,,,0.01,VWS V12.07,2013-03-27 02:44:00,
2013-03-26 21:49:00,30.9,23.9,30.32,North,5,0.0,0.0,75,0.00,,,0.01,VWS V12.07,2013-03-27 02:49:00,
2013-03-26 21:54:00,30.9,23.6,30.32,North,5,0.0,0.0,74,0.00,,,0.01,VWS V12.07,2013-03-27 02:54:00,
2013-03-26 22:04:00,30.9,23.9,30.32,North,360,0.0,0.0,75,0.00,,,0.01,VWS V12.07,2013-03-27 03:04:00,
2013-03-26 22:09:00,30.9,23.6,30.32,North,5,0.0,0.0,74,0.00,,,0.01,VWS V12.07,2013-03-27 03:09:00,
2013-03-26 22:19:00,30.8,23.5,30.32,North,9,0.0,2.0,74,0.00,,,0.01,VWS V12.07,2013-03-27 03:19:00,
2013-03-26 22:29:00,30.8,23.2,30.32,North,9,0.0,2.0,73,0.00,,,0.01,VWS V12.07,2013-03-27 03:29:00,
2013-03-26 22:34:00,30.8,23.2,30.32,North,9,0.0,0.0,73,0.00,,,0.01,VWS V12.07,2013-03-27 03:34:00,
2013-03-26 22:39:00,30.8,23.2,30.32,North,9,0.0,1.0,73,0.00,,,0.01,VWS V12.07,2013-03-27 03:39:00,
2013-03-26 22:49:00,30.4,23.8,30.32,West,278,0.0,2.0,76,0.00,,,0.01,VWS V12.07,2013-03-27 03:49:00,
2013-03-26 22:54:00,30.1,23.8,30.32,West,278,0.0,2.0,77,0.00,,,0.01,VWS V12.07,2013-03-27 03:54:00,
2013-03-26 22:59:00,29.7,23.7,30.32,West,276,0.0,2.0,78,0.00,,,0.01,VWS V12.07,2013-03-27 03:59:00,
2013-03-26 23:04:00,29.5,23.2,30.32,West,276,0.0,0.0,77,0.00,,,0.01,VWS V12.07,2013-03-27 04:04:00,
2013-03-26 23:09:00,29.2,23.2,30.32,West,276,0.0,0.0,78,0.00,,,0.01,VWS V12.07,2013-03-27 04:09:00,
2013-03-26 23:14:00,29.0,23.0,30.32,West,276,0.0,0.0,78,0.00,,,0.01,VWS V12.07,2013-03-27 04:14:00,
2013-03-26 23:19:00,28.9,23.2,30.32,West,276,0.0,0.0,79,0.00,,,0.01,VWS V12.07,2013-03-27 04:19:00,
2013-03-26 23:29:00,28.7,23.3,30.32,West,276,0.0,0.0,80,0.00,,,0.01,VWS V12.07,2013-03-27 04:29:00,
2013-03-26 23:34:00,28.5,23.1,30.32,West,276,0.0,0.0,80,0.00,,,0.01,VWS V12.07,2013-03-27 04:34:00,
2013-03-26 23:39:00,28.5,23.1,30.32,West,276,0.0,0.0,80,0.00,,,0.01,VWS V12.07,2013-03-27 04:39:00,
2013-03-26 23:44:00,28.5,22.8,30.33,West,276,0.0,0.0,79,0.00,,,0.01,VWS V12.07,2013-03-27 04:44:00,
2013-03-26 23:49:00,28.6,23.2,30.33,West,276,0.0,1.0,80,0.00,,,0.01,VWS V12.07,2013-03-27 04:49:00,
2013-03-26 23:59:00,28.6,23.5,30.33,NNW,336,0.0,1.0,81,0.00,,,0.01,VWS V12.07,2013-03-27 04:59:00,